createdAt,value
2023-02-28T07:18:56.987Z,15.75
2023-02-28T07:21:26.143Z,15.91
2023-02-28T07:23:52.942Z,16.51
2023-02-28T07:26:23.313Z,16.82
2023-02-28T07:28:50.469Z,17.11
2023-02-28T07:31:19.570Z,17.28
2023-02-28T07:33:49.032Z,17.39
2023-02-28T07:36:18.119Z,17.54
2023-02-28T07:38:48.609Z,17.64
2023-02-28T07:41:23.554Z,17.75
2023-02-28T07:43:52.329Z,17.86
2023-02-28T07:46:22.391Z,17.97
2023-02-28T07:48:53.866Z,18.05
2023-02-28T07:51:23.748Z,18.15
2023-02-28T07:53:50.591Z,18.30
2023-02-28T07:56:19.895Z,18.38
2023-02-28T07:58:49.106Z,18.42
2023-02-28T08:01:15.840Z,18.49
2023-02-28T08:03:45.743Z,18.58
2023-02-28T08:06:20.267Z,18.73
2023-02-28T08:08:48.494Z,18.81
2023-02-28T08:11:15.264Z,18.82
2023-02-28T08:13:45.203Z,18.84
2023-02-28T08:16:15.337Z,18.90
2023-02-28T08:18:42.371Z,18.98
2023-02-28T08:21:09.962Z,19.04
2023-02-28T08:23:37.151Z,19.07
2023-02-28T08:26:06.434Z,19.12
2023-02-28T08:28:33.423Z,19.18
2023-02-28T08:31:00.224Z,19.32
2023-02-28T08:33:27.703Z,19.32
2023-02-28T08:35:57.258Z,19.32
2023-02-28T08:38:24.566Z,19.33
2023-02-28T08:40:51.559Z,19.36
2023-02-28T08:43:18.584Z,19.40
2023-02-28T08:45:47.700Z,19.42
2023-02-28T08:48:14.709Z,19.45
2023-02-28T08:50:41.810Z,19.50
2023-02-28T08:53:11.258Z,19.52
2023-02-28T08:55:37.956Z,19.56
2023-02-28T08:58:04.903Z,19.59
2023-02-28T09:00:31.832Z,19.62
2023-02-28T09:03:03.221Z,19.65
2023-02-28T09:05:31.156Z,19.61
2023-02-28T09:07:58.230Z,19.61
2023-02-28T09:10:27.035Z,19.70
2023-02-28T09:12:54.214Z,19.72
2023-02-28T09:15:23.174Z,19.74
2023-02-28T09:17:50.027Z,19.78
2023-02-28T09:20:17.863Z,18.92
2023-02-28T09:22:44.689Z,19.14
2023-02-28T09:25:11.629Z,19.26
2023-02-28T09:27:42.279Z,19.35
2023-02-28T09:30:09.556Z,19.41
2023-02-28T09:32:40.859Z,19.40
2023-02-28T09:35:07.983Z,19.47
2023-02-28T09:37:36.835Z,19.47
2023-02-28T09:40:04.874Z,19.52
2023-02-28T09:42:33.260Z,19.52
2023-02-28T09:45:00.102Z,19.55
2023-02-28T09:47:34.224Z,19.60
2023-02-28T09:50:14.898Z,19.66
2023-02-28T09:52:41.658Z,19.62
2023-02-28T09:55:41.538Z,19.75
2023-02-28T09:58:23.525Z,19.78
2023-02-28T10:00:56.963Z,19.80
2023-02-28T10:03:58.373Z,19.80
2023-02-28T10:06:29.685Z,19.85
2023-02-28T10:08:59.746Z,19.86
2023-02-28T10:11:29.341Z,20.01
2023-02-28T10:14:03.601Z,20.01
2023-02-28T10:16:37.564Z,19.93
2023-02-28T10:19:10.069Z,19.98
2023-02-28T10:21:41.247Z,19.96
2023-02-28T10:24:24.295Z,19.96
2023-02-28T10:26:52.389Z,19.97
2023-02-28T10:29:23.712Z,20.01
2023-02-28T10:31:53.284Z,20.00
2023-02-28T10:34:22.324Z,20.10
2023-02-28T10:36:50.775Z,20.18
2023-02-28T10:39:38.608Z,20.31
2023-02-28T10:42:05.597Z,20.38
2023-02-28T10:44:32.323Z,20.49
2023-02-28T10:47:01.439Z,20.68
2023-02-28T10:49:29.788Z,20.64
2023-02-28T10:51:59.787Z,20.72
2023-02-28T10:54:36.400Z,20.73
2023-02-28T10:57:23.194Z,20.73
2023-02-28T10:59:53.730Z,20.66
2023-02-28T11:05:01.750Z,20.85
2023-02-28T11:07:37.458Z,20.90
2023-02-28T11:10:14.620Z,20.90
2023-02-28T11:12:51.898Z,20.72
2023-02-28T11:15:29.598Z,20.74
2023-02-28T11:18:17.579Z,20.66
2023-02-28T11:20:51.324Z,20.54
2023-02-28T11:23:21.170Z,20.42
2023-02-28T11:25:50.480Z,20.15
2023-02-28T11:28:27.815Z,20.10
2023-02-28T11:31:07.052Z,20.24
2023-02-28T11:33:53.357Z,20.29
2023-02-28T11:36:30.011Z,20.30
2023-02-28T11:39:02.750Z,20.30
2023-02-28T11:41:40.845Z,20.30
2023-02-28T11:44:19.924Z,20.32
2023-02-28T11:46:54.757Z,20.28
2023-02-28T11:49:25.194Z,20.32
2023-02-28T11:52:15.329Z,20.26
2023-02-28T11:54:51.147Z,20.18
2023-02-28T11:57:45.322Z,20.24
2023-02-28T12:00:33.565Z,20.25
2023-02-28T12:03:30.328Z,20.26
2023-02-28T12:06:20.492Z,20.26
2023-02-28T12:08:47.135Z,20.28
2023-02-28T12:11:22.535Z,20.30
2023-02-28T12:14:34.131Z,20.28
2023-02-28T12:17:15.887Z,20.32
2023-02-28T12:20:04.124Z,20.62
2023-02-28T12:22:33.897Z,20.50
2023-02-28T12:25:24.248Z,20.47
2023-02-28T12:27:51.455Z,20.44
2023-02-28T12:30:29.239Z,20.44
2023-02-28T12:33:04.267Z,20.43
2023-02-28T12:35:56.871Z,20.45
2023-02-28T12:38:28.381Z,20.44
2023-02-28T12:41:05.361Z,20.44
2023-02-28T12:43:35.511Z,20.44
2023-02-28T12:46:39.567Z,20.41
2023-02-28T12:49:12.461Z,20.40
2023-02-28T12:51:39.304Z,20.41
2023-02-28T12:54:31.892Z,20.43
2023-02-28T12:57:19.814Z,20.47
2023-02-28T12:59:55.358Z,20.52
2023-02-28T13:02:40.390Z,20.38
2023-02-28T13:05:10.142Z,20.43
2023-02-28T13:07:55.696Z,20.47
2023-02-28T13:10:27.967Z,20.51
2023-02-28T13:12:55.873Z,20.48
2023-02-28T13:15:29.053Z,20.49
2023-02-28T13:17:57.721Z,20.51
2023-02-28T13:20:25.264Z,20.53
2023-02-28T13:22:53.805Z,20.47
2023-02-28T13:25:23.554Z,20.50
2023-02-28T13:27:57.987Z,20.50
2023-02-28T13:30:56.891Z,20.53
2023-02-28T13:33:29.981Z,20.52
2023-02-28T13:36:15.480Z,20.48
2023-02-28T13:39:05.168Z,20.49
2023-02-28T13:41:32.148Z,20.48
2023-02-28T13:44:07.023Z,20.48
2023-02-28T13:46:37.818Z,20.45
2023-02-28T13:49:26.541Z,20.45
2023-02-28T13:52:17.420Z,20.36
2023-02-28T13:54:59.494Z,20.40
2023-02-28T13:58:06.441Z,20.42
2023-02-28T14:00:42.512Z,20.42
2023-02-28T14:03:25.769Z,20.39
2023-02-28T14:06:14.841Z,20.39
2023-02-28T14:08:53.589Z,20.38
2023-02-28T14:11:33.518Z,20.38
2023-02-28T14:14:00.663Z,20.39
2023-02-28T14:16:31.082Z,20.36
2023-02-28T14:19:11.031Z,20.30
2023-02-28T14:21:39.442Z,20.37
2023-02-28T14:24:12.351Z,20.34
2023-02-28T14:27:03.831Z,20.32
2023-02-28T14:29:48.685Z,20.32
2023-02-28T14:32:23.057Z,20.30
2023-02-28T14:35:27.068Z,20.29
2023-02-28T14:37:54.062Z,20.29
2023-02-28T14:40:36.125Z,20.28
2023-02-28T14:43:07.007Z,20.26
2023-02-28T14:45:38.541Z,20.25
2023-02-28T14:48:05.739Z,20.23
2023-02-28T14:50:36.700Z,20.22
2023-02-28T14:53:05.371Z,20.22
2023-02-28T14:55:33.607Z,20.19
2023-02-28T14:58:04.337Z,20.13
2023-02-28T15:00:32.628Z,20.17
2023-02-28T15:03:01.503Z,20.17
2023-02-28T15:05:32.378Z,20.15
2023-02-28T15:08:12.828Z,20.15
2023-02-28T15:10:41.206Z,20.16
2023-02-28T15:13:09.259Z,20.14
2023-02-28T15:16:14.150Z,20.14
2023-02-28T15:18:53.634Z,20.10
2023-02-28T15:21:24.416Z,20.12
2023-02-28T15:23:54.604Z,20.11
2023-02-28T15:26:22.911Z,20.11
2023-02-28T15:28:52.612Z,20.10
2023-02-28T15:31:36.266Z,20.08
2023-02-28T15:34:06.942Z,20.07
2023-02-28T15:36:38.153Z,20.02
2023-02-28T15:39:22.484Z,20.04
2023-02-28T15:41:49.371Z,20.02
2023-02-28T15:44:36.291Z,20.00
2023-02-28T15:47:08.496Z,20.02
2023-02-28T15:50:00.685Z,20.01
2023-02-28T15:52:41.856Z,20.04
2023-02-28T15:55:14.335Z,20.04
2023-02-28T15:57:43.362Z,20.04
2023-02-28T16:00:14.948Z,20.03
2023-02-28T16:02:41.886Z,20.02
2023-02-28T16:05:08.566Z,20.01
2023-02-28T16:07:39.229Z,19.97
2023-02-28T16:10:06.862Z,20.00
2023-02-28T16:12:34.962Z,20.03
2023-02-28T16:15:24.021Z,20.03
2023-02-28T16:17:50.764Z,20.06
2023-02-28T16:20:19.564Z,20.08
2023-02-28T16:22:46.904Z,20.07
2023-02-28T16:25:15.036Z,20.07
2023-02-28T16:27:41.978Z,20.09
2023-02-28T16:30:09.409Z,20.09
2023-02-28T16:32:37.005Z,20.10
2023-02-28T16:35:03.892Z,20.08
2023-02-28T16:37:30.843Z,20.09
2023-02-28T16:39:57.559Z,20.13
2023-02-28T16:42:26.336Z,20.13
2023-02-28T16:44:56.362Z,20.14
2023-02-28T16:47:27.717Z,20.15
2023-02-28T16:49:54.582Z,20.15
2023-02-28T16:52:26.416Z,20.15
2023-02-28T16:54:55.478Z,20.09
2023-02-28T16:57:22.962Z,20.14
2023-02-28T16:59:51.910Z,20.12
2023-02-28T17:02:20.457Z,20.14
2023-02-28T17:04:49.706Z,20.13
2023-02-28T17:07:19.676Z,20.13
2023-02-28T17:09:51.585Z,20.15
2023-02-28T17:12:18.603Z,20.15
2023-02-28T17:14:45.484Z,20.13
2023-02-28T17:17:30.341Z,20.15
2023-02-28T17:19:57.267Z,20.11
2023-02-28T17:22:24.135Z,20.16
2023-02-28T17:24:50.935Z,20.16
2023-02-28T17:27:17.563Z,20.16
2023-02-28T17:29:44.275Z,20.12
2023-02-28T17:32:17.863Z,20.10
2023-02-28T17:34:46.854Z,20.12
2023-02-28T17:37:13.880Z,20.10
2023-02-28T17:39:42.988Z,20.11
2023-02-28T17:42:12.129Z,20.10
2023-02-28T17:44:41.197Z,20.11
2023-02-28T17:47:07.958Z,20.10
2023-02-28T17:49:34.687Z,20.11
2023-02-28T17:52:01.489Z,20.09
2023-02-28T17:54:30.779Z,20.07
2023-02-28T17:56:57.602Z,20.06
2023-02-28T17:59:24.290Z,20.05
2023-02-28T18:01:51.783Z,20.06
2023-02-28T18:04:18.523Z,20.03
2023-02-28T18:06:48.388Z,20.02
2023-02-28T18:09:16.117Z,19.96
2023-02-28T18:11:50.088Z,19.85
2023-02-28T18:14:17.140Z,19.78
2023-02-28T18:16:46.217Z,19.62
2023-02-28T18:19:17.553Z,19.24
2023-02-28T18:21:45.224Z,19.41
2023-02-28T18:24:12.454Z,19.50
2023-02-28T18:26:39.523Z,19.64
2023-02-28T18:29:06.779Z,19.73
2023-02-28T18:31:36.316Z,19.60
2023-02-28T18:34:03.185Z,19.60
2023-02-28T18:36:34.529Z,19.65
2023-02-28T18:39:01.551Z,19.66
2023-02-28T18:41:30.558Z,19.67
2023-02-28T18:43:57.330Z,19.69
2023-02-28T18:46:24.324Z,19.69
2023-02-28T18:48:51.196Z,19.69
2023-02-28T18:51:20.072Z,19.69
2023-02-28T18:53:46.937Z,19.71
2023-02-28T18:56:15.198Z,19.73
2023-02-28T18:58:45.059Z,19.73
2023-02-28T19:01:26.954Z,19.73
2023-02-28T19:03:53.729Z,19.75
2023-02-28T19:06:20.556Z,19.75
2023-02-28T19:08:49.278Z,19.76
2023-02-28T19:11:17.608Z,19.78
2023-02-28T19:13:44.483Z,19.77
2023-02-28T19:16:11.645Z,19.78
2023-02-28T19:18:38.836Z,19.78
2023-02-28T19:21:11.266Z,19.79
2023-02-28T19:23:38.486Z,19.79
2023-02-28T19:26:16.164Z,19.80
2023-02-28T19:28:45.182Z,19.79
2023-02-28T19:31:16.308Z,19.81
2023-02-28T19:33:45.246Z,19.80
2023-02-28T19:36:12.645Z,19.80
2023-02-28T19:38:40.037Z,19.81
2023-02-28T19:41:09.269Z,19.79
2023-02-28T19:43:38.418Z,19.75
2023-02-28T19:46:05.680Z,19.79
2023-02-28T19:48:35.370Z,19.79
2023-02-28T19:51:03.653Z,19.79
2023-02-28T19:53:30.994Z,19.79
2023-02-28T19:56:00.605Z,19.79
2023-02-28T19:58:27.620Z,19.79
2023-02-28T20:00:54.573Z,19.79
2023-02-28T20:03:23.911Z,19.79
2023-02-28T20:06:03.066Z,19.80
2023-02-28T20:08:29.884Z,19.80
2023-02-28T20:11:04.067Z,19.79
2023-02-28T20:13:33.469Z,19.81
2023-02-28T20:16:06.196Z,19.80
2023-02-28T20:18:33.743Z,19.80
2023-02-28T20:21:01.968Z,19.80
2023-02-28T20:23:29.280Z,19.81
2023-02-28T20:25:59.930Z,19.81
2023-02-28T20:28:26.776Z,19.80
2023-02-28T20:30:53.627Z,19.80
2023-02-28T20:33:20.596Z,19.81
2023-02-28T20:35:49.291Z,19.82
2023-02-28T20:38:16.054Z,19.81
2023-02-28T20:40:43.015Z,19.80
2023-02-28T20:43:09.869Z,19.80
2023-02-28T20:45:37.085Z,19.81
2023-02-28T20:48:04.066Z,19.80
2023-02-28T20:50:31.703Z,19.80
2023-02-28T20:52:58.428Z,19.80
2023-02-28T20:55:25.309Z,19.80
2023-02-28T20:57:54.195Z,19.80
2023-02-28T21:00:22.470Z,19.79
2023-02-28T21:02:49.178Z,19.80
2023-02-28T21:05:18.047Z,19.77
2023-02-28T21:07:44.794Z,19.80
2023-02-28T21:10:12.177Z,19.79
2023-02-28T21:12:41.109Z,19.79
2023-02-28T21:15:08.612Z,19.80
2023-02-28T21:17:35.497Z,19.79
2023-02-28T21:20:02.228Z,19.79
2023-02-28T21:22:29.032Z,19.79
2023-02-28T21:24:55.863Z,19.75
2023-02-28T21:27:24.680Z,19.78
2023-02-28T21:29:53.882Z,19.78
2023-02-28T21:32:22.915Z,19.78
2023-02-28T21:34:52.541Z,19.76
2023-02-28T21:37:21.934Z,19.76
2023-02-28T21:39:48.668Z,19.77
2023-02-28T21:42:18.490Z,19.76
2023-02-28T21:44:45.302Z,19.76
2023-02-28T21:47:12.322Z,19.76
2023-02-28T21:49:41.362Z,19.75
2023-02-28T21:52:10.119Z,19.75
2023-02-28T21:54:36.948Z,19.75
2023-02-28T21:57:03.761Z,19.75
2023-02-28T21:59:30.721Z,19.72
2023-02-28T22:01:59.572Z,19.75
2023-02-28T22:04:26.242Z,19.74
2023-02-28T22:06:54.438Z,19.74
2023-02-28T22:09:21.293Z,19.74
2023-02-28T22:11:48.048Z,19.75
2023-02-28T22:14:14.799Z,19.74
2023-02-28T22:16:51.124Z,19.74
2023-02-28T22:19:19.729Z,19.74
2023-02-28T22:21:47.551Z,19.74
2023-02-28T22:24:20.194Z,19.74
2023-02-28T22:26:46.931Z,19.74
2023-02-28T22:29:15.718Z,19.73
2023-02-28T22:31:42.541Z,19.73
2023-02-28T22:34:10.718Z,19.75
2023-02-28T22:36:40.569Z,19.76
2023-02-28T22:39:07.438Z,19.23
2023-02-28T22:41:34.300Z,18.86
2023-02-28T22:44:01.992Z,18.75
2023-02-28T22:46:29.981Z,18.93
2023-02-28T22:49:01.352Z,18.98
2023-02-28T22:51:27.987Z,18.98
2023-02-28T22:53:55.206Z,18.98
2023-02-28T22:56:23.023Z,18.98
2023-02-28T22:58:54.044Z,18.95
2023-02-28T23:01:24.547Z,19.01
2023-02-28T23:03:51.487Z,19.03
2023-02-28T23:06:24.878Z,19.05
2023-02-28T23:08:57.115Z,19.08
2023-02-28T23:11:29.185Z,19.07
2023-02-28T23:13:58.631Z,19.11
2023-02-28T23:16:26.414Z,19.11
2023-02-28T23:18:53.223Z,19.16
2023-02-28T23:21:19.903Z,19.16
2023-02-28T23:23:48.856Z,19.21
2023-02-28T23:26:15.600Z,19.23
2023-02-28T23:28:42.405Z,19.26
2023-02-28T23:31:11.313Z,19.27
2023-02-28T23:33:40.397Z,19.29
2023-02-28T23:36:09.884Z,19.30
2023-02-28T23:38:36.881Z,19.32
2023-02-28T23:41:09.410Z,19.33
2023-02-28T23:43:36.457Z,19.34
2023-02-28T23:46:03.828Z,19.36
2023-02-28T23:48:32.930Z,19.37
2023-02-28T23:51:08.469Z,19.39
2023-02-28T23:53:36.010Z,19.40
2023-02-28T23:56:03.066Z,19.42
2023-02-28T23:58:30.044Z,19.42
